sensor_id;sensor_type;location;lat;lon;timestamp;temperature;humidity
19090;DHT22;9677;50.656;13.064;2023-08-12T00:00:25;22.60;46.30
19090;DHT22;9677;50.656;13.064;2023-08-12T00:02:54;22.60;46.30
19090;DHT22;9677;50.656;13.064;2023-08-12T00:05:22;22.60;46.30
19090;DHT22;9677;50.656;13.064;2023-08-12T00:07:51;22.50;46.30
19090;DHT22;9677;50.656;13.064;2023-08-12T00:10:19;22.50;46.40
19090;DHT22;9677;50.656;13.064;2023-08-12T00:12:47;22.50;46.40
19090;DHT22;9677;50.656;13.064;2023-08-12T00:15:17;22.50;46.40
19090;DHT22;9677;50.656;13.064;2023-08-12T00:17:45;22.40;46.50
19090;DHT22;9677;50.656;13.064;2023-08-12T00:20:13;22.40;46.50
19090;DHT22;9677;50.656;13.064;2023-08-12T00:22:42;22.30;46.50
19090;DHT22;9677;50.656;13.064;2023-08-12T00:25:10;22.30;46.50
19090;DHT22;9677;50.656;13.064;2023-08-12T00:27:38;22.30;46.60
19090;DHT22;9677;50.656;13.064;2023-08-12T00:30:07;22.30;46.60
19090;DHT22;9677;50.656;13.064;2023-08-12T00:32:37;22.20;46.60
19090;DHT22;9677;50.656;13.064;2023-08-12T00:35:08;22.20;46.80
19090;DHT22;9677;50.656;13.064;2023-08-12T00:37:36;22.10;46.80
19090;DHT22;9677;50.656;13.064;2023-08-12T00:40:06;22.10;46.70
19090;DHT22;9677;50.656;13.064;2023-08-12T00:42:35;22.10;46.90
19090;DHT22;9677;50.656;13.064;2023-08-12T00:45:03;22.00;46.80
19090;DHT22;9677;50.656;13.064;2023-08-12T00:47:34;22.00;46.90
19090;DHT22;9677;50.656;13.064;2023-08-12T00:50:04;22.00;46.90
19090;DHT22;9677;50.656;13.064;2023-08-12T00:52:34;21.90;47.10
19090;DHT22;9677;50.656;13.064;2023-08-12T00:55:03;21.90;47.00
19090;DHT22;9677;50.656;13.064;2023-08-12T00:57:31;21.90;47.10
19090;DHT22;9677;50.656;13.064;2023-08-12T01:00:00;21.80;47.10
19090;DHT22;9677;50.656;13.064;2023-08-12T01:02:28;21.80;47.20
19090;DHT22;9677;50.656;13.064;2023-08-12T01:04:57;21.70;47.10
19090;DHT22;9677;50.656;13.064;2023-08-12T01:07:26;21.70;47.20
19090;DHT22;9677;50.656;13.064;2023-08-12T01:09:54;21.70;47.40
19090;DHT22;9677;50.656;13.064;2023-08-12T01:12:28;21.90;47.40
19090;DHT22;9677;50.656;13.064;2023-08-12T01:15:04;21.60;47.50
19090;DHT22;9677;50.656;13.064;2023-08-12T01:17:38;21.60;47.50
19090;DHT22;9677;50.656;13.064;2023-08-12T01:20:09;21.60;47.50
19090;DHT22;9677;50.656;13.064;2023-08-12T01:22:41;21.60;47.50
19090;DHT22;9677;50.656;13.064;2023-08-12T01:25:13;21.50;47.60
19090;DHT22;9677;50.656;13.064;2023-08-12T01:27:41;21.50;47.60
19090;DHT22;9677;50.656;13.064;2023-08-12T01:30:10;21.50;47.60
19090;DHT22;9677;50.656;13.064;2023-08-12T01:32:42;21.50;47.70
19090;DHT22;9677;50.656;13.064;2023-08-12T01:35:17;21.50;47.90
19090;DHT22;9677;50.656;13.064;2023-08-12T01:37:50;21.40;47.90
19090;DHT22;9677;50.656;13.064;2023-08-12T01:40:23;21.40;48.00
19090;DHT22;9677;50.656;13.064;2023-08-12T01:42:52;21.40;48.00
19090;DHT22;9677;50.656;13.064;2023-08-12T01:45:21;21.30;47.90
19090;DHT22;9677;50.656;13.064;2023-08-12T01:47:50;21.40;48.10
19090;DHT22;9677;50.656;13.064;2023-08-12T01:50:18;21.30;48.00
19090;DHT22;9677;50.656;13.064;2023-08-12T01:52:48;21.30;48.00
19090;DHT22;9677;50.656;13.064;2023-08-12T01:55:16;21.30;48.00
19090;DHT22;9677;50.656;13.064;2023-08-12T01:57:46;21.30;48.10
19090;DHT22;9677;50.656;13.064;2023-08-12T02:00:15;21.30;48.20
19090;DHT22;9677;50.656;13.064;2023-08-12T02:02:44;21.20;48.20
19090;DHT22;9677;50.656;13.064;2023-08-12T02:05:14;21.20;48.30
19090;DHT22;9677;50.656;13.064;2023-08-12T02:07:42;21.20;48.30
19090;DHT22;9677;50.656;13.064;2023-08-12T02:10:11;21.10;48.30
19090;DHT22;9677;50.656;13.064;2023-08-12T02:12:41;21.10;48.30
19090;DHT22;9677;50.656;13.064;2023-08-12T02:15:12;21.10;48.30
19090;DHT22;9677;50.656;13.064;2023-08-12T02:17:40;21.00;48.50
19090;DHT22;9677;50.656;13.064;2023-08-12T02:20:09;21.00;48.40
19090;DHT22;9677;50.656;13.064;2023-08-12T02:22:38;21.00;48.40
19090;DHT22;9677;50.656;13.064;2023-08-12T02:25:07;21.00;48.40
19090;DHT22;9677;50.656;13.064;2023-08-12T02:27:36;21.00;48.50
19090;DHT22;9677;50.656;13.064;2023-08-12T02:30:05;21.00;48.50
19090;DHT22;9677;50.656;13.064;2023-08-12T02:32:35;21.00;48.60
19090;DHT22;9677;50.656;13.064;2023-08-12T02:35:04;21.00;48.60
19090;DHT22;9677;50.656;13.064;2023-08-12T02:37:34;20.90;48.60
19090;DHT22;9677;50.656;13.064;2023-08-12T02:40:02;20.90;48.60
19090;DHT22;9677;50.656;13.064;2023-08-12T02:42:33;20.90;48.70
19090;DHT22;9677;50.656;13.064;2023-08-12T02:45:01;20.90;48.60
19090;DHT22;9677;50.656;13.064;2023-08-12T02:47:29;20.80;48.70
19090;DHT22;9677;50.656;13.064;2023-08-12T02:49:59;20.80;48.70
19090;DHT22;9677;50.656;13.064;2023-08-12T02:52:27;20.80;48.80
19090;DHT22;9677;50.656;13.064;2023-08-12T02:54:55;20.80;48.80
19090;DHT22;9677;50.656;13.064;2023-08-12T02:57:24;20.80;49.40
19090;DHT22;9677;50.656;13.064;2023-08-12T02:59:52;20.80;48.90
19090;DHT22;9677;50.656;13.064;2023-08-12T03:02:20;20.70;48.90
19090;DHT22;9677;50.656;13.064;2023-08-12T03:04:49;20.70;48.90
19090;DHT22;9677;50.656;13.064;2023-08-12T03:07:19;20.80;49.00
19090;DHT22;9677;50.656;13.064;2023-08-12T03:09:47;20.70;49.00
19090;DHT22;9677;50.656;13.064;2023-08-12T03:12:15;20.70;49.00
19090;DHT22;9677;50.656;13.064;2023-08-12T03:14:44;20.70;49.00
19090;DHT22;9677;50.656;13.064;2023-08-12T03:17:12;20.70;49.00
19090;DHT22;9677;50.656;13.064;2023-08-12T03:19:41;20.60;49.00
19090;DHT22;9677;50.656;13.064;2023-08-12T03:22:09;20.60;49.10
19090;DHT22;9677;50.656;13.064;2023-08-12T03:24:40;20.60;49.10
19090;DHT22;9677;50.656;13.064;2023-08-12T03:27:09;20.60;49.20
19090;DHT22;9677;50.656;13.064;2023-08-12T03:29:38;20.60;49.20
19090;DHT22;9677;50.656;13.064;2023-08-12T03:32:06;20.60;49.30
19090;DHT22;9677;50.656;13.064;2023-08-12T03:34:35;20.50;49.20
19090;DHT22;9677;50.656;13.064;2023-08-12T03:37:03;20.70;49.30
19090;DHT22;9677;50.656;13.064;2023-08-12T03:39:33;20.50;49.30
19090;DHT22;9677;50.656;13.064;2023-08-12T03:42:03;20.40;49.30
19090;DHT22;9677;50.656;13.064;2023-08-12T03:44:31;20.50;49.50
19090;DHT22;9677;50.656;13.064;2023-08-12T03:46:59;20.40;49.40
19090;DHT22;9677;50.656;13.064;2023-08-12T03:49:28;20.40;49.40
19090;DHT22;9677;50.656;13.064;2023-08-12T03:51:56;20.40;49.60
19090;DHT22;9677;50.656;13.064;2023-08-12T03:54:25;20.40;49.60
19090;DHT22;9677;50.656;13.064;2023-08-12T03:56:53;20.30;49.50
19090;DHT22;9677;50.656;13.064;2023-08-12T03:59:24;20.30;49.60
19090;DHT22;9677;50.656;13.064;2023-08-12T04:01:52;20.30;49.70
19090;DHT22;9677;50.656;13.064;2023-08-12T04:04:20;20.30;49.70
19090;DHT22;9677;50.656;13.064;2023-08-12T04:06:49;20.30;49.80
19090;DHT22;9677;50.656;13.064;2023-08-12T04:09:18;20.30;49.90
19090;DHT22;9677;50.656;13.064;2023-08-12T04:11:47;20.70;50.10
19090;DHT22;9677;50.656;13.064;2023-08-12T04:14:16;20.30;49.90
19090;DHT22;9677;50.656;13.064;2023-08-12T04:16:45;20.20;49.90
19090;DHT22;9677;50.656;13.064;2023-08-12T04:19:16;20.20;50.00
19090;DHT22;9677;50.656;13.064;2023-08-12T04:21:44;20.20;50.00
19090;DHT22;9677;50.656;13.064;2023-08-12T04:24:13;20.20;50.00
19090;DHT22;9677;50.656;13.064;2023-08-12T04:26:41;20.20;50.00
19090;DHT22;9677;50.656;13.064;2023-08-12T04:29:10;20.20;50.10
19090;DHT22;9677;50.656;13.064;2023-08-12T04:31:40;20.20;50.10
19090;DHT22;9677;50.656;13.064;2023-08-12T04:34:10;20.20;50.10
19090;DHT22;9677;50.656;13.064;2023-08-12T04:36:39;20.20;50.20
19090;DHT22;9677;50.656;13.064;2023-08-12T04:39:10;20.20;50.20
19090;DHT22;9677;50.656;13.064;2023-08-12T04:41:39;20.20;50.30
19090;DHT22;9677;50.656;13.064;2023-08-12T04:44:08;20.10;50.20
19090;DHT22;9677;50.656;13.064;2023-08-12T04:46:37;20.20;50.30
19090;DHT22;9677;50.656;13.064;2023-08-12T04:49:05;20.20;50.40
19090;DHT22;9677;50.656;13.064;2023-08-12T04:51:35;20.10;50.40
19090;DHT22;9677;50.656;13.064;2023-08-12T04:54:04;20.10;50.40
19090;DHT22;9677;50.656;13.064;2023-08-12T04:56:32;20.10;50.50
19090;DHT22;9677;50.656;13.064;2023-08-12T04:59:01;20.20;50.60
19090;DHT22;9677;50.656;13.064;2023-08-12T05:01:31;20.10;50.70
19090;DHT22;9677;50.656;13.064;2023-08-12T05:03:59;20.10;50.70
19090;DHT22;9677;50.656;13.064;2023-08-12T05:06:27;20.20;50.70
19090;DHT22;9677;50.656;13.064;2023-08-12T05:08:58;20.20;50.80
19090;DHT22;9677;50.656;13.064;2023-08-12T05:11:27;20.20;51.00
19090;DHT22;9677;50.656;13.064;2023-08-12T05:13:55;20.20;51.00
19090;DHT22;9677;50.656;13.064;2023-08-12T05:16:24;20.30;51.10
19090;DHT22;9677;50.656;13.064;2023-08-12T05:18:52;20.30;51.10
19090;DHT22;9677;50.656;13.064;2023-08-12T05:21:20;20.30;51.10
19090;DHT22;9677;50.656;13.064;2023-08-12T05:23:49;20.40;51.20
19090;DHT22;9677;50.656;13.064;2023-08-12T05:26:19;20.40;51.20
19090;DHT22;9677;50.656;13.064;2023-08-12T05:28:47;20.40;51.30
19090;DHT22;9677;50.656;13.064;2023-08-12T05:31:15;20.50;51.30
19090;DHT22;9677;50.656;13.064;2023-08-12T05:33:44;20.50;51.90
19090;DHT22;9677;50.656;13.064;2023-08-12T05:36:12;20.60;51.40
19090;DHT22;9677;50.656;13.064;2023-08-12T05:38:40;20.60;51.30
19090;DHT22;9677;50.656;13.064;2023-08-12T05:41:08;20.60;51.30
19090;DHT22;9677;50.656;13.064;2023-08-12T05:43:38;20.60;51.30
19090;DHT22;9677;50.656;13.064;2023-08-12T05:46:06;20.60;51.40
19090;DHT22;9677;50.656;13.064;2023-08-12T05:48:35;20.70;51.30
19090;DHT22;9677;50.656;13.064;2023-08-12T05:51:03;20.70;51.40
19090;DHT22;9677;50.656;13.064;2023-08-12T05:53:31;20.70;51.40
19090;DHT22;9677;50.656;13.064;2023-08-12T05:56:00;20.80;51.50
19090;DHT22;9677;50.656;13.064;2023-08-12T05:58:28;20.80;51.40
19090;DHT22;9677;50.656;13.064;2023-08-12T06:00:58;20.80;51.40
19090;DHT22;9677;50.656;13.064;2023-08-12T06:03:26;20.80;51.50
19090;DHT22;9677;50.656;13.064;2023-08-12T06:05:54;20.90;51.50
19090;DHT22;9677;50.656;13.064;2023-08-12T06:08:22;20.90;51.50
19090;DHT22;9677;50.656;13.064;2023-08-12T06:10:51;20.90;51.60
19090;DHT22;9677;50.656;13.064;2023-08-12T06:13:19;21.00;51.60
19090;DHT22;9677;50.656;13.064;2023-08-12T06:15:47;21.10;51.80
19090;DHT22;9677;50.656;13.064;2023-08-12T06:18:17;21.00;51.80
19090;DHT22;9677;50.656;13.064;2023-08-12T06:20:45;21.10;51.90
19090;DHT22;9677;50.656;13.064;2023-08-12T06:23:13;21.10;51.90
19090;DHT22;9677;50.656;13.064;2023-08-12T06:25:41;21.20;52.00
19090;DHT22;9677;50.656;13.064;2023-08-12T06:28:09;21.20;52.10
19090;DHT22;9677;50.656;13.064;2023-08-12T06:30:37;21.30;52.80
19090;DHT22;9677;50.656;13.064;2023-08-12T06:33:06;21.30;52.30
19090;DHT22;9677;50.656;13.064;2023-08-12T06:35:35;21.50;52.40
19090;DHT22;9677;50.656;13.064;2023-08-12T06:38:03;21.50;52.60
19090;DHT22;9677;50.656;13.064;2023-08-12T06:40:32;21.60;52.50
19090;DHT22;9677;50.656;13.064;2023-08-12T06:43:00;21.70;52.60
19090;DHT22;9677;50.656;13.064;2023-08-12T06:45:28;21.80;52.60
19090;DHT22;9677;50.656;13.064;2023-08-12T06:47:56;21.90;52.70
19090;DHT22;9677;50.656;13.064;2023-08-12T06:50:24;22.00;52.70
19090;DHT22;9677;50.656;13.064;2023-08-12T06:52:54;22.10;52.70
19090;DHT22;9677;50.656;13.064;2023-08-12T06:55:22;22.20;52.90
19090;DHT22;9677;50.656;13.064;2023-08-12T06:57:50;22.30;52.80
19090;DHT22;9677;50.656;13.064;2023-08-12T07:00:19;22.40;52.80
19090;DHT22;9677;50.656;13.064;2023-08-12T07:02:48;22.40;52.70
19090;DHT22;9677;50.656;13.064;2023-08-12T07:05:16;22.60;52.70
19090;DHT22;9677;50.656;13.064;2023-08-12T07:07:44;22.70;53.20
19090;DHT22;9677;50.656;13.064;2023-08-12T07:10:14;22.80;52.60
19090;DHT22;9677;50.656;13.064;2023-08-12T07:12:42;22.90;52.60
19090;DHT22;9677;50.656;13.064;2023-08-12T07:15:10;23.00;52.50
19090;DHT22;9677;50.656;13.064;2023-08-12T07:17:39;23.10;52.50
19090;DHT22;9677;50.656;13.064;2023-08-12T07:20:08;23.10;52.30
19090;DHT22;9677;50.656;13.064;2023-08-12T07:22:36;23.30;52.30
19090;DHT22;9677;50.656;13.064;2023-08-12T07:25:05;23.30;52.20
19090;DHT22;9677;50.656;13.064;2023-08-12T07:27:35;23.40;52.80
19090;DHT22;9677;50.656;13.064;2023-08-12T07:30:04;23.50;52.20
19090;DHT22;9677;50.656;13.064;2023-08-12T07:32:35;23.60;52.20
19090;DHT22;9677;50.656;13.064;2023-08-12T07:35:05;23.60;52.10
19090;DHT22;9677;50.656;13.064;2023-08-12T07:37:34;23.70;52.10
19090;DHT22;9677;50.656;13.064;2023-08-12T07:40:03;23.80;52.10
19090;DHT22;9677;50.656;13.064;2023-08-12T07:42:32;23.90;52.10
19090;DHT22;9677;50.656;13.064;2023-08-12T07:45:02;24.00;52.00
19090;DHT22;9677;50.656;13.064;2023-08-12T07:47:30;24.10;52.00
19090;DHT22;9677;50.656;13.064;2023-08-12T07:49:58;24.20;51.80
19090;DHT22;9677;50.656;13.064;2023-08-12T07:52:27;24.30;51.80
19090;DHT22;9677;50.656;13.064;2023-08-12T07:54:55;24.40;51.70
19090;DHT22;9677;50.656;13.064;2023-08-12T07:57:23;24.50;51.60
19090;DHT22;9677;50.656;13.064;2023-08-12T07:59:51;24.60;51.60
19090;DHT22;9677;50.656;13.064;2023-08-12T08:02:21;24.70;51.40
19090;DHT22;9677;50.656;13.064;2023-08-12T08:04:49;24.80;51.20
19090;DHT22;9677;50.656;13.064;2023-08-12T08:07:18;24.90;51.70
19090;DHT22;9677;50.656;13.064;2023-08-12T08:09:46;25.00;50.90
19090;DHT22;9677;50.656;13.064;2023-08-12T08:12:14;25.10;50.70
19090;DHT22;9677;50.656;13.064;2023-08-12T08:14:42;25.20;50.60
19090;DHT22;9677;50.656;13.064;2023-08-12T08:17:10;25.30;50.50
19090;DHT22;9677;50.656;13.064;2023-08-12T08:19:40;25.40;50.30
19090;DHT22;9677;50.656;13.064;2023-08-12T08:22:08;25.50;50.20
19090;DHT22;9677;50.656;13.064;2023-08-12T08:24:37;25.50;50.10
19090;DHT22;9677;50.656;13.064;2023-08-12T08:27:06;25.70;50.00
19090;DHT22;9677;50.656;13.064;2023-08-12T08:29:34;26.00;50.00
19090;DHT22;9677;50.656;13.064;2023-08-12T08:32:02;25.90;49.70
19090;DHT22;9677;50.656;13.064;2023-08-12T08:34:30;26.00;49.70
19090;DHT22;9677;50.656;13.064;2023-08-12T08:37:00;26.10;49.70
19090;DHT22;9677;50.656;13.064;2023-08-12T08:39:29;26.20;49.40
19090;DHT22;9677;50.656;13.064;2023-08-12T08:41:58;26.30;49.40
19090;DHT22;9677;50.656;13.064;2023-08-12T08:44:29;26.50;49.50
19090;DHT22;9677;50.656;13.064;2023-08-12T08:46:58;26.60;49.50
19090;DHT22;9677;50.656;13.064;2023-08-12T08:49:28;26.70;49.30
19090;DHT22;9677;50.656;13.064;2023-08-12T08:52:00;26.80;49.00
19090;DHT22;9677;50.656;13.064;2023-08-12T08:54:28;27.00;49.00
19090;DHT22;9677;50.656;13.064;2023-08-12T08:56:57;27.10;48.90
19090;DHT22;9677;50.656;13.064;2023-08-12T08:59:36;27.20;48.70
19090;DHT22;9677;50.656;13.064;2023-08-12T09:02:04;27.30;48.60
19090;DHT22;9677;50.656;13.064;2023-08-12T09:04:33;27.40;48.50
19090;DHT22;9677;50.656;13.064;2023-08-12T09:07:03;27.60;48.40
19090;DHT22;9677;50.656;13.064;2023-08-12T09:09:32;27.60;48.30
19090;DHT22;9677;50.656;13.064;2023-08-12T09:12:03;27.60;48.20
19090;DHT22;9677;50.656;13.064;2023-08-12T09:14:33;27.80;48.10
19090;DHT22;9677;50.656;13.064;2023-08-12T09:17:02;27.80;48.00
19090;DHT22;9677;50.656;13.064;2023-08-12T09:19:30;27.90;47.70
19090;DHT22;9677;50.656;13.064;2023-08-12T09:21:58;28.00;47.70
19090;DHT22;9677;50.656;13.064;2023-08-12T09:24:28;28.10;47.70
19090;DHT22;9677;50.656;13.064;2023-08-12T09:26:57;28.10;47.60
19090;DHT22;9677;50.656;13.064;2023-08-12T09:29:29;28.20;47.50
19090;DHT22;9677;50.656;13.064;2023-08-12T09:32:10;28.20;47.20
19090;DHT22;9677;50.656;13.064;2023-08-12T09:34:46;28.30;47.20
19090;DHT22;9677;50.656;13.064;2023-08-12T09:37:15;28.40;47.20
19090;DHT22;9677;50.656;13.064;2023-08-12T09:39:46;28.40;47.20
19090;DHT22;9677;50.656;13.064;2023-08-12T09:42:15;28.40;47.30
19090;DHT22;9677;50.656;13.064;2023-08-12T09:44:45;28.50;47.10
19090;DHT22;9677;50.656;13.064;2023-08-12T09:47:13;28.60;47.10
19090;DHT22;9677;50.656;13.064;2023-08-12T09:49:41;28.60;47.10
19090;DHT22;9677;50.656;13.064;2023-08-12T09:52:09;28.70;47.10
19090;DHT22;9677;50.656;13.064;2023-08-12T09:54:38;28.80;47.10
19090;DHT22;9677;50.656;13.064;2023-08-12T09:57:08;28.80;46.90
19090;DHT22;9677;50.656;13.064;2023-08-12T09:59:41;28.80;46.90
19090;DHT22;9677;50.656;13.064;2023-08-12T10:02:14;28.80;46.80
19090;DHT22;9677;50.656;13.064;2023-08-12T10:04:46;28.90;46.80
19090;DHT22;9677;50.656;13.064;2023-08-12T10:07:18;29.00;46.90
19090;DHT22;9677;50.656;13.064;2023-08-12T10:09:47;29.00;46.80
19090;DHT22;9677;50.656;13.064;2023-08-12T10:12:17;29.00;46.70
19090;DHT22;9677;50.656;13.064;2023-08-12T10:14:47;29.00;46.70
19090;DHT22;9677;50.656;13.064;2023-08-12T10:17:15;29.10;46.70
19090;DHT22;9677;50.656;13.064;2023-08-12T10:20:05;29.10;46.70
19090;DHT22;9677;50.656;13.064;2023-08-12T10:22:35;29.20;46.70
19090;DHT22;9677;50.656;13.064;2023-08-12T10:25:04;29.20;46.70
19090;DHT22;9677;50.656;13.064;2023-08-12T10:27:37;29.30;46.70
19090;DHT22;9677;50.656;13.064;2023-08-12T10:30:06;29.50;46.80
19090;DHT22;9677;50.656;13.064;2023-08-12T10:32:36;29.30;46.60
19090;DHT22;9677;50.656;13.064;2023-08-12T10:35:06;29.40;46.60
19090;DHT22;9677;50.656;13.064;2023-08-12T10:37:35;29.40;46.60
19090;DHT22;9677;50.656;13.064;2023-08-12T10:40:05;29.50;46.60
19090;DHT22;9677;50.656;13.064;2023-08-12T10:42:43;29.60;46.60
19090;DHT22;9677;50.656;13.064;2023-08-12T10:45:13;29.60;46.60
19090;DHT22;9677;50.656;13.064;2023-08-12T10:47:43;29.70;46.80
19090;DHT22;9677;50.656;13.064;2023-08-12T10:50:19;29.70;46.70
19090;DHT22;9677;50.656;13.064;2023-08-12T10:52:52;29.80;46.70
19090;DHT22;9677;50.656;13.064;2023-08-12T10:55:22;29.90;46.60
19090;DHT22;9677;50.656;13.064;2023-08-12T10:57:53;29.90;46.50
19090;DHT22;9677;50.656;13.064;2023-08-12T11:00:24;29.90;46.50
19090;DHT22;9677;50.656;13.064;2023-08-12T11:02:54;30.00;46.30
19090;DHT22;9677;50.656;13.064;2023-08-12T11:05:24;30.10;46.40
19090;DHT22;9677;50.656;13.064;2023-08-12T11:07:56;30.10;46.40
19090;DHT22;9677;50.656;13.064;2023-08-12T11:10:30;30.10;46.30
19090;DHT22;9677;50.656;13.064;2023-08-12T11:13:03;30.20;46.30
19090;DHT22;9677;50.656;13.064;2023-08-12T11:15:32;30.20;46.30
19090;DHT22;9677;50.656;13.064;2023-08-12T11:18:02;30.30;46.40
19090;DHT22;9677;50.656;13.064;2023-08-12T11:20:32;30.30;46.30
19090;DHT22;9677;50.656;13.064;2023-08-12T11:23:01;30.40;46.40
19090;DHT22;9677;50.656;13.064;2023-08-12T11:25:31;30.50;46.40
19090;DHT22;9677;50.656;13.064;2023-08-12T11:28:02;30.50;46.30
19090;DHT22;9677;50.656;13.064;2023-08-12T11:30:32;30.50;46.30
19090;DHT22;9677;50.656;13.064;2023-08-12T11:33:01;30.70;46.40
19090;DHT22;9677;50.656;13.064;2023-08-12T11:35:30;30.80;46.50
19090;DHT22;9677;50.656;13.064;2023-08-12T11:37:59;30.80;46.40
19090;DHT22;9677;50.656;13.064;2023-08-12T11:40:28;31.00;46.30
19090;DHT22;9677;50.656;13.064;2023-08-12T11:42:56;31.10;46.20
19090;DHT22;9677;50.656;13.064;2023-08-12T11:45:26;31.20;46.10
19090;DHT22;9677;50.656;13.064;2023-08-12T11:47:55;31.20;45.90
19090;DHT22;9677;50.656;13.064;2023-08-12T11:50:25;31.30;45.80
19090;DHT22;9677;50.656;13.064;2023-08-12T11:52:56;31.40;45.70
19090;DHT22;9677;50.656;13.064;2023-08-12T11:55:25;31.50;45.60
19090;DHT22;9677;50.656;13.064;2023-08-12T11:57:54;31.60;45.50
19090;DHT22;9677;50.656;13.064;2023-08-12T12:00:26;31.60;44.90
19090;DHT22;9677;50.656;13.064;2023-08-12T12:02:55;31.60;44.70
19090;DHT22;9677;50.656;13.064;2023-08-12T12:05:27;31.70;44.30
19090;DHT22;9677;50.656;13.064;2023-08-12T12:07:56;31.70;44.10
19090;DHT22;9677;50.656;13.064;2023-08-12T12:10:28;31.70;43.80
19090;DHT22;9677;50.656;13.064;2023-08-12T12:13:02;31.70;43.30
19090;DHT22;9677;50.656;13.064;2023-08-12T12:15:38;31.70;43.60
19090;DHT22;9677;50.656;13.064;2023-08-12T12:18:10;31.70;43.40
19090;DHT22;9677;50.656;13.064;2023-08-12T12:20:53;31.80;43.30
19090;DHT22;9677;50.656;13.064;2023-08-12T12:23:26;31.90;43.40
19090;DHT22;9677;50.656;13.064;2023-08-12T12:25:58;31.90;43.50
19090;DHT22;9677;50.656;13.064;2023-08-12T12:28:27;32.00;43.40
19090;DHT22;9677;50.656;13.064;2023-08-12T12:30:56;31.90;43.50
19090;DHT22;9677;50.656;13.064;2023-08-12T12:33:25;32.10;43.30
19090;DHT22;9677;50.656;13.064;2023-08-12T12:35:54;32.00;43.10
19090;DHT22;9677;50.656;13.064;2023-08-12T12:38:26;32.10;43.30
19090;DHT22;9677;50.656;13.064;2023-08-12T12:40:55;32.20;43.50
19090;DHT22;9677;50.656;13.064;2023-08-12T12:43:24;32.40;43.60
19090;DHT22;9677;50.656;13.064;2023-08-12T12:45:52;32.30;43.40
19090;DHT22;9677;50.656;13.064;2023-08-12T12:48:22;32.30;42.90
19090;DHT22;9677;50.656;13.064;2023-08-12T12:50:50;32.50;42.80
19090;DHT22;9677;50.656;13.064;2023-08-12T12:53:18;32.60;42.90
19090;DHT22;9677;50.656;13.064;2023-08-12T12:55:46;32.60;43.00
19090;DHT22;9677;50.656;13.064;2023-08-12T12:58:15;32.60;43.00
19090;DHT22;9677;50.656;13.064;2023-08-12T13:00:43;32.90;43.20
19090;DHT22;9677;50.656;13.064;2023-08-12T13:03:12;32.80;42.70
19090;DHT22;9677;50.656;13.064;2023-08-12T13:05:41;32.80;42.30
19090;DHT22;9677;50.656;13.064;2023-08-12T13:08:10;32.80;41.90
19090;DHT22;9677;50.656;13.064;2023-08-12T13:10:38;32.90;41.90
19090;DHT22;9677;50.656;13.064;2023-08-12T13:13:07;33.00;41.80
19090;DHT22;9677;50.656;13.064;2023-08-12T13:15:35;32.90;41.60
19090;DHT22;9677;50.656;13.064;2023-08-12T13:18:04;33.00;41.70
19090;DHT22;9677;50.656;13.064;2023-08-12T13:20:32;33.00;41.90
19090;DHT22;9677;50.656;13.064;2023-08-12T13:23:02;33.10;42.20
19090;DHT22;9677;50.656;13.064;2023-08-12T13:25:32;33.10;42.10
19090;DHT22;9677;50.656;13.064;2023-08-12T13:28:01;33.20;41.70
19090;DHT22;9677;50.656;13.064;2023-08-12T13:30:31;33.40;41.70
19090;DHT22;9677;50.656;13.064;2023-08-12T13:32:59;33.40;41.50
19090;DHT22;9677;50.656;13.064;2023-08-12T13:35:28;33.30;41.40
19090;DHT22;9677;50.656;13.064;2023-08-12T13:37:56;33.30;41.20
19090;DHT22;9677;50.656;13.064;2023-08-12T13:40:26;33.40;41.00
19090;DHT22;9677;50.656;13.064;2023-08-12T13:42:54;33.40;40.60
19090;DHT22;9677;50.656;13.064;2023-08-12T13:45:22;33.60;40.80
19090;DHT22;9677;50.656;13.064;2023-08-12T13:47:51;33.50;40.60
19090;DHT22;9677;50.656;13.064;2023-08-12T13:50:20;33.50;40.50
19090;DHT22;9677;50.656;13.064;2023-08-12T13:52:48;33.60;40.20
19090;DHT22;9677;50.656;13.064;2023-08-12T13:55:17;33.70;40.10
19090;DHT22;9677;50.656;13.064;2023-08-12T13:57:47;33.70;39.80
19090;DHT22;9677;50.656;13.064;2023-08-12T14:00:15;33.70;39.20
19090;DHT22;9677;50.656;13.064;2023-08-12T14:02:44;33.70;39.30
19090;DHT22;9677;50.656;13.064;2023-08-12T14:05:13;33.70;39.30
19090;DHT22;9677;50.656;13.064;2023-08-12T14:07:42;33.70;39.20
19090;DHT22;9677;50.656;13.064;2023-08-12T14:10:10;33.80;39.40
19090;DHT22;9677;50.656;13.064;2023-08-12T14:12:38;33.70;39.00
19090;DHT22;9677;50.656;13.064;2023-08-12T14:15:08;33.70;39.10
19090;DHT22;9677;50.656;13.064;2023-08-12T14:17:37;33.70;39.10
19090;DHT22;9677;50.656;13.064;2023-08-12T14:20:06;33.70;39.20
19090;DHT22;9677;50.656;13.064;2023-08-12T14:22:35;33.60;39.00
19090;DHT22;9677;50.656;13.064;2023-08-12T14:25:04;33.60;39.20
19090;DHT22;9677;50.656;13.064;2023-08-12T14:27:33;33.60;39.20
19090;DHT22;9677;50.656;13.064;2023-08-12T14:30:02;33.50;39.00
19090;DHT22;9677;50.656;13.064;2023-08-12T14:32:32;33.50;39.10
19090;DHT22;9677;50.656;13.064;2023-08-12T14:35:00;33.50;39.20
19090;DHT22;9677;50.656;13.064;2023-08-12T14:37:28;33.50;39.50
19090;DHT22;9677;50.656;13.064;2023-08-12T14:39:57;33.50;39.50
19090;DHT22;9677;50.656;13.064;2023-08-12T14:42:25;33.50;39.50
19090;DHT22;9677;50.656;13.064;2023-08-12T14:44:53;33.60;39.70
19090;DHT22;9677;50.656;13.064;2023-08-12T14:47:21;33.60;39.60
19090;DHT22;9677;50.656;13.064;2023-08-12T14:49:51;33.60;39.60
19090;DHT22;9677;50.656;13.064;2023-08-12T14:52:20;33.70;39.40
19090;DHT22;9677;50.656;13.064;2023-08-12T14:54:49;33.80;39.30
19090;DHT22;9677;50.656;13.064;2023-08-12T14:57:17;33.80;39.70
19090;DHT22;9677;50.656;13.064;2023-08-12T14:59:45;33.80;38.90
19090;DHT22;9677;50.656;13.064;2023-08-12T15:02:19;33.90;39.00
19090;DHT22;9677;50.656;13.064;2023-08-12T15:04:49;34.00;38.80
19090;DHT22;9677;50.656;13.064;2023-08-12T15:07:20;34.00;38.60
19090;DHT22;9677;50.656;13.064;2023-08-12T15:09:48;34.10;38.50
19090;DHT22;9677;50.656;13.064;2023-08-12T15:12:18;34.10;38.20
19090;DHT22;9677;50.656;13.064;2023-08-12T15:14:47;34.10;38.10
19090;DHT22;9677;50.656;13.064;2023-08-12T15:17:15;34.10;38.00
19090;DHT22;9677;50.656;13.064;2023-08-12T15:19:43;34.10;38.50
19090;DHT22;9677;50.656;13.064;2023-08-12T15:22:13;34.00;37.50
19090;DHT22;9677;50.656;13.064;2023-08-12T15:24:41;34.00;37.50
19090;DHT22;9677;50.656;13.064;2023-08-12T15:27:09;33.90;37.60
19090;DHT22;9677;50.656;13.064;2023-08-12T15:29:38;34.10;37.80
19090;DHT22;9677;50.656;13.064;2023-08-12T15:32:06;33.80;37.60
19090;DHT22;9677;50.656;13.064;2023-08-12T15:34:34;33.80;37.80
19090;DHT22;9677;50.656;13.064;2023-08-12T15:37:03;33.60;37.80
19090;DHT22;9677;50.656;13.064;2023-08-12T15:39:33;33.60;37.90
19090;DHT22;9677;50.656;13.064;2023-08-12T15:42:01;33.50;37.70